• Join FlightAware (Why Join?)
  • Login
  • US Flag 
04:33PM EST


 

Airport Tracker/Info


-or-


 

Live Flight TrackerFlight Track Log ✈ KAL36 ✈ 29-Jun-2013 ✈ KATL - RKSI / ICN

Flight Track Log - Related Links

Times and Time Zones

All times are in EDT time to prevent confusion due to time zone crossing. See the KAL36 flight status page for this flight to view local times or setup timezone preferences in your user account.

Time Position Orientation Groundspeed Altitude Reporting Facility
EDT Latitude Longitude Course Direction KTS MPH feet Rate Location/Type
01:26PM 33.6370 -84.4180 180° South 12 14  Level FlightAware
01:27PM 33.6370 -84.4160 90° East 30 35 300 Level FlightAware
01:28PM 33.6370 -84.4140 90° East 15 17 420 Level FlightAware
01:28PM 33.6370 -84.4120 90° East 27 31 420 Level FlightAware
01:29PM 33.6370 -84.4100 90° East 27 31 540 Level FlightAware
01:29PM 33.6370 -84.4080 90° East 26 30 660 Level FlightAware
01:29PM 33.6360 -84.4070 140° Southeast 27 31 780 Level FlightAware
01:31PM 33.6350 -84.4270 267° West 160 184 840 Level FlightAware
01:32PM 33.6350 -84.4570 270° West 198 228 1,900 3,060 Climbing FlightAware
01:32PM 33.6350 -84.5040 270° West 201 231 3,600 2,220 Climbing FlightAware
01:33PM 33.6350 -84.5290 270° West 204 235 4,300 1,380 Climbing FlightAware
01:33PM 33.6450 -84.5670 288° West 240 276 4,900 960 Climbing FlightAware
01:33PM 33.6520 -84.5730 324° Northwest 244 281 5,000 1,500 Climbing FlightAware
01:34PM 33.6890 -84.5880 341° North 267 307 5,900 1,860 Climbing FlightAware
01:34PM 33.7230 -84.5990 345° North 279 321 6,900 1,920 Climbing FlightAware
01:35PM 33.8120 -84.5990 360° North 308 354 9,000 1,740 Climbing FlightAware
01:36PM 33.8550 -84.6010 358° North 328 377 9,700 2,100 Climbing FlightAware
01:37PM 33.9290 -84.6100 354° North 334 384 11,700 2,760 Climbing FlightAware
01:37PM 33.9890 -84.6170 354° North 330 380 13,800 2,700 Climbing FlightAware
01:38PM 34.0550 -84.6240 355° North 345 397 15,400 2,160 Climbing FlightAware
01:39PM 34.1190 -84.6310 355° North 356 410 16,800 1,860 Climbing FlightAware
01:39PM 34.1890 -84.6410 353° North 366 421 18,000 1,320 Climbing FlightAware
01:40PM 34.2690 -84.6580 350° North 386 444 18,800 960 Climbing FlightAware
01:41PM 34.3380 -84.6740 349° North 405 466 19,400 1,020 Climbing FlightAware
01:42PM 34.4240 -84.6940 349° North 420 483 20,300 1,320 Climbing FlightAware
01:42PM 34.4930 -84.7100 349° North 426 490 21,200 1,440 Climbing FlightAware
01:43PM 34.5830 -84.7300 350° North 432 497 22,300 1,260 Climbing FlightAware
01:44PM 34.6660 -84.7490 349° North 440 506 23,100 1,200 Climbing FlightAware
01:44PM 34.7470 -84.7680 349° North 445 512 24,000 1,140 Climbing FlightAware
01:45PM 34.8590 -84.7940 349° North 454 522 25,000 1,200 Climbing FlightAware
01:46PM 34.9520 -84.8160 349° North 459 528 26,000 1,260 Climbing FlightAware
01:47PM 35.0450 -84.8370 350° North 463 533 26,900 1,200 Climbing FlightAware
01:47PM 35.1240 -84.8560 349° North 466 536 27,700 1,080 Climbing FlightAware
01:48PM 35.2060 -84.8750 349° North 473 544 28,300 840 Climbing FlightAware
01:49PM 35.3160 -84.9000 349° North 482 555 29,000 900 Climbing FlightAware
01:49PM 35.3960 -84.9190 349° North 484 557 29,700 660 Climbing FlightAware
01:50PM 35.5010 -84.9440 349° North 493 567 30,000 180 Climbing FlightAware
01:51PM 35.5910 -84.9650 349° North 492 566 30,000  Level FlightAware
01:52PM 35.6790 -84.9860 349° North 494 568 30,000  Level FlightAware
01:52PM 35.7770 -85.0090 349° North 493 567 30,000  Level FlightAware
01:53PM 35.8640 -85.0290 349° North 489 563 30,000  Level FlightAware
01:54PM 35.9500 -85.0500 349° North 487 560 30,000  Level FlightAware
01:54PM 36.0640 -85.0770 349° North 486 559 30,000  Level FlightAware
01:56PM 36.1840 -85.1080 348° North 486 559 30,000  Level FlightAware
01:56PM 36.3290 -85.1410 350° North 486 559 30,000  Level FlightAware
01:57PM 36.4140 -85.1610 349° North 491 565 30,000  Level FlightAware
01:59PM 36.6370 -85.2150 349° North 487 560 30,000  Level FlightAware
02:00PM 36.7760 -85.2500 349° North 487 560 30,000  Level FlightAware
02:01PM 36.8690 -85.2750 348° North 487 560 30,000  Level FlightAware
02:01PM 36.9330 -85.2920 348° North 487 560 30,000  Level FlightAware
02:02PM 37.0080 -85.3120 348° North 487 560 30,000  Level FlightAware
02:03PM 37.2030 -85.3530 350° North 488 562 30,000  Level FlightAware
02:04PM 37.2910 -85.3750 349° North 490 564 30,000  Level FlightAware
02:04PM 37.3870 -85.3990 349° North 486 559 30,000  Level FlightAware
02:05PM 37.4880 -85.4240 349° North 484 557 30,000  Level FlightAware
02:06PM 37.5810 -85.4470 349° North 481 554 30,000  Level FlightAware
02:06PM 37.6580 -85.4660 349° North 478 550 30,000  Level FlightAware
02:07PM 37.7500 -85.4890 349° North 477 549 30,000  Level FlightAware
02:08PM 37.8500 -85.5140 349° North 478 550 30,000  Level FlightAware
02:09PM 37.9400 -85.5360 349° North 478 550 30,000  Level FlightAware
02:09PM 38.0320 -85.5600 348° North 478 550 30,000  Level FlightAware
02:10PM 38.1430 -85.6010 344° North 465 535 30,000  Level FlightAware
02:11PM 38.2190 -85.6440 336° Northwest 465 535 30,000  Level FlightAware
02:13PM 38.4360 -85.7730 335° Northwest 465 535 30,000  Level FlightAware
02:14PM 38.5520 -85.8420 335° Northwest 468 539 30,000  Level FlightAware
02:14PM 38.6410 -85.8940 335° Northwest 471 542 30,000  Level FlightAware
02:21PM 39.3660 -86.3100 336° Northwest 474 545 30,000  Level FlightAware
02:21PM 39.4430 -86.3540 336° Northwest 470 541 30,000  Level FlightAware
02:22PM 39.5360 -86.3540 360° North 472 543 30,000 300 Level FlightAware
02:23PM 39.6920 -86.3360 North 479 551 30,600 900 Climbing FlightAware
02:24PM 39.8420 -86.3150 North 468 539 32,000 360 Climbing FlightAware
02:27PM 40.1910 -86.3350 357° North 488 562 32,000  Level FlightAware
02:28PM 40.2600 -86.4280 314° West 489 563 32,000  Level FlightAware
02:29PM 40.3460 -86.5040 326° Northwest 489 563 32,000  Level FlightAware
02:29PM 40.4230 -86.5630 330° Northwest 486 559 32,000  Level FlightAware
02:34PM 40.9940 -87.0140 329° Northwest 493 567 32,000  Level FlightAware
02:37PM 41.2970 -87.2560 329° Northwest 490 564 32,000  Level FlightAware
02:37PM 41.3740 -87.3180 329° Northwest 490 564 32,000  Level FlightAware
02:38PM 41.4640 -87.3910 329° Northwest 490 564 32,000  Level FlightAware
02:39PM 41.5460 -87.4570 329° Northwest 491 565 32,000  Level FlightAware
02:39PM 41.6160 -87.5140 329° Northwest 491 565 32,000  Level FlightAware
02:40PM 41.7320 -87.6090 329° Northwest 491 565 32,000  Level FlightAware
02:41PM 41.8220 -87.6820 329° Northwest 491 565 32,000  Level FlightAware
02:42PM 41.8990 -87.7450 329° Northwest 488 562 32,000  Level FlightAware
02:43PM 42.0110 -87.8380 328° Northwest 487 560 32,000  Level FlightAware
02:44PM 42.1150 -87.9240 328° Northwest 485 558 32,000  Level FlightAware
02:44PM 42.1980 -87.9930 328° Northwest 484 557 32,000  Level FlightAware
02:48PM 42.5990 -88.3290 328° Northwest 490 564 32,000  Level FlightAware
02:49PM 42.7090 -88.4220 328° Northwest 492 566 32,000  Level FlightAware
02:52PM 43.0600 -88.7220 328° Northwest 498 573 32,000  Level FlightAware
02:53PM 43.1790 -88.8250 328° Northwest 497 572 32,000  Level FlightAware
02:53PM 43.2420 -88.8790 328° Northwest 498 573 32,000  Level FlightAware
02:54PM 43.3400 -88.9640 328° Northwest 499 574 32,000  Level FlightAware
02:56PM 43.5500 -89.1480 328° Northwest 501 577 32,000  Level FlightAware
02:57PM 43.6410 -89.2270 328° Northwest 502 578 32,000  Level FlightAware
02:58PM 43.7080 -89.2880 327° Northwest 502 578 32,000  Level FlightAware
02:58PM 43.7980 -89.3670 328° Northwest 505 581 32,000  Level FlightAware
02:59PM 43.8780 -89.4370 328° Northwest 507 583 32,000  Level FlightAware
03:01PM 44.1670 -89.6950 327° Northwest 510 587 32,000  Level FlightAware
03:02PM 44.2370 -89.7580 327° Northwest 508 585 32,000  Level FlightAware
03:03PM 44.3440 -89.8570 327° Northwest 507 583 32,000  Level FlightAware
03:04PM 44.4280 -89.9310 328° Northwest 502 578 32,000  Level FlightAware
03:04PM 44.5220 -90.0170 327° Northwest 498 573 32,000  Level FlightAware
03:05PM 44.5880 -90.0770 327° Northwest 496 571 32,000  Level FlightAware
03:06PM 44.6840 -90.1660 327° Northwest 495 570 32,000  Level FlightAware
03:07PM 44.7810 -90.2560 327° Northwest 496 571 32,000  Level FlightAware
03:07PM 44.8680 -90.3340 328° Northwest 493 567 32,000  Level FlightAware
03:08PM 44.9490 -90.4100 326° Northwest 491 565 32,000  Level FlightAware
03:09PM 45.0270 -90.4820 327° Northwest 493 567 32,000  Level FlightAware
03:09PM 45.1020 -90.5530 326° Northwest 494 568 32,000  Level FlightAware
03:10PM 45.1960 -90.6410 327° Northwest 493 567 32,000  Level FlightAware
03:12PM 45.3750 -90.8100 326° Northwest 489 563 32,000  Level FlightAware
03:13PM 45.4550 -90.8850 327° Northwest 488 562 32,000  Level FlightAware
03:13PM 45.5280 -90.9540 326° Northwest 489 563 32,000  Level FlightAware
03:14PM 45.6080 -91.0310 326° Northwest 490 564 32,000  Level FlightAware
03:15PM 45.6780 -91.0980 326° Northwest 490 564 32,000  Level FlightAware
03:15PM 45.7580 -91.1750 326° Northwest 489 563 32,000  Level FlightAware
03:16PM 45.8730 -91.2850 326° Northwest 487 560 32,000  Level FlightAware
03:17PM 45.9520 -91.3620 326° Northwest 487 560 32,000  Level FlightAware
03:18PM 46.0350 -91.4430 326° Northwest 488 562 32,000  Level FlightAware
03:18PM 46.1090 -91.5150 326° Northwest 490 564 32,000  Level FlightAware
03:19PM 46.1830 -91.5870 326° Northwest 490 564 32,000  Level FlightAware
03:22PM 46.4890 -91.8890 326° Northwest 489 563 32,000  Level FlightAware
03:23PM 46.5820 -91.9820 326° Northwest 489 563 32,000  Level FlightAware
03:23PM 46.6530 -92.0530 326° Northwest 487 560 32,000  Level FlightAware
03:24PM 46.7340 -92.1340 326° Northwest 487 560 32,000  Level FlightAware
03:26PM 46.9880 -92.3240 333° Northwest 488 562 32,000  Level FlightAware
03:27PM 47.0600 -92.3710 336° Northwest 488 562 32,000  Level FlightAware
03:27PM 47.1350 -92.4210 336° Northwest 489 563 32,000  Level FlightAware
03:28PM 47.2200 -92.4770 336° Northwest 489 563 32,000  Level FlightAware
03:29PM 47.3030 -92.5320 336° Northwest 489 563 32,000  Level FlightAware
03:29PM 47.3810 -92.5840 336° Northwest 488 562 32,000  Level FlightAware
03:31PM 47.5890 -92.7230 336° Northwest 487 560 32,000  Level FlightAware
03:32PM 47.6790 -92.7840 335° Northwest 488 562 32,000  Level FlightAware
03:32PM 47.7530 -92.8340 336° Northwest 488 562 32,000  Level FlightAware
03:33PM 47.8520 -92.9020 335° Northwest 487 560 32,000  Level FlightAware
03:34PM 47.9390 -92.9610 336° Northwest 487 560 32,000  Level FlightAware
03:34PM 48.0210 -93.0170 335° Northwest 487 560 32,000  Level FlightAware
03:35PM 48.1010 -93.0720 335° Northwest 487 560 32,000  Level FlightAware
03:36PM 48.1800 -93.1260 336° Northwest 486 559 32,000  Level FlightAware
03:37PM 48.2720 -93.1900 335° Northwest 485 558 32,000  Level FlightAware
03:37PM 48.3380 -93.2360 335° Northwest 485 558 32,000  Level FlightAware
03:38PM 48.4510 -93.3140 335° Northwest 482 555 32,000  Level FlightAware
03:39PM 48.5100 -93.3560 335° Northwest 481 554 32,000  Level FlightAware
03:39PM 48.5930 -93.4140 335° Northwest 481 554 32,000  Level FlightAware
03:41PM 48.7110 -93.4970 335° Northwest 481 554 32,000  Level FlightAware
03:41PM 48.7730 -93.5410 335° Northwest 481 554 32,000  Level FlightAware
03:42PM 48.8570 -93.6000 335° Northwest 481 554 32,000  Level FlightAware
03:43PM 48.9170 -93.6430 335° Northwest 481 554 32,000  Level FlightAware
03:43PM 49.0040 -93.7050 335° Northwest 481 554 32,000  Level FlightAware
03:44PM 49.0660 -93.7490 335° Northwest 481 554 32,000  Level FlightAware
03:45PM 49.1460 -93.8060 335° Northwest 481 554 32,000  Level FlightAware
03:45PM 49.2120 -93.8530 335° Northwest 481 554 32,000  Level FlightAware
03:46PM 49.2940 -93.9120 335° Northwest 481 554 32,000  Level FlightAware
03:47PM 49.3560 -93.9560 335° Northwest 481 554 32,000  Level FlightAware
03:48PM 49.4380 -94.0150 335° Northwest 481 554 32,000  Level FlightAware
03:49PM 49.7667 -94.2500 335° Northwest 480 552 32,000  Level Winnipeg Center
03:50PM 49.8833 -94.3500 331° Northwest 480 552 32,000  Level Winnipeg Center
03:51PM 50.0000 -94.4333 335° Northwest 480 552 32,000  Level Winnipeg Center
03:52PM 50.1167 -94.5333 331° Northwest 480 552 32,000  Level Winnipeg Center
03:53PM 50.2500 -94.6333 334° Northwest 480 552 32,000  Level Winnipeg Center
03:54PM 50.3667 -94.7333 331° Northwest 480 552 32,000  Level Winnipeg Center
03:55PM 50.5000 -94.8333 335° Northwest 480 552 32,000  Level Winnipeg Center
03:56PM 50.6167 -94.9000 340° North 480 552 32,000  Level Winnipeg Center
03:57PM 50.7167 -95.0167 324° Northwest 480 552 32,000  Level Winnipeg Center
03:58PM 50.8500 -95.1167 335° Northwest 480 552 32,000  Level Winnipeg Center
03:59PM 50.9667 -95.2167 332° Northwest 470 541 32,000  Level Winnipeg Center
04:00PM 51.0833 -95.2833 340° North 480 552 32,000  Level Winnipeg Center
04:01PM 51.2000 -95.3833 332° Northwest 480 552 32,000  Level Winnipeg Center
04:02PM 51.3333 -95.5000 331° Northwest 480 552 32,000  Level Winnipeg Center
04:03PM 51.4500 -95.6000 332° Northwest 480 552 32,000  Level Winnipeg Center
04:04PM 51.5500 -95.7000 328° Northwest 470 541 32,000  Level Winnipeg Center
04:05PM 51.6833 -95.7833 339° North 470 541 32,000  Level Winnipeg Center
04:06PM 51.7833 -95.8833 328° Northwest 480 552 32,000  Level Winnipeg Center
04:07PM 51.9000 -95.9833 332° Northwest 480 552 32,000  Level Winnipeg Center
04:08PM 52.0333 -96.1000 332° Northwest 480 552 32,000  Level Winnipeg Center
04:09PM 52.1333 -96.2000 328° Northwest 480 552 32,000  Level Winnipeg Center
04:10PM 52.2667 -96.2833 339° North 480 552 32,000  Level Winnipeg Center
04:11PM 52.3833 -96.3833 332° Northwest 480 552 32,000  Level Winnipeg Center
04:12PM 52.4833 -96.5000 325° Northwest 480 552 32,000  Level Winnipeg Center
04:13PM 52.6167 -96.6000 336° Northwest 480 552 32,000  Level Winnipeg Center
04:14PM 52.7167 -96.7167 325° Northwest 470 541 32,000  Level Winnipeg Center
04:15PM 52.8500 -96.8333 332° Northwest 470 541 32,000  Level Winnipeg Center
04:16PM 52.9333 -96.8667 346° North 470 541 32,000  Level Edmonton Center
04:17PM 53.0667 -96.9833 332° Northwest 470 541 32,000  Level Edmonton Center
04:18PM 53.1833 -97.0833 333° Northwest 470 541 32,000  Level Edmonton Center
04:19PM 53.2833 -97.2000 325° Northwest 470 541 32,000  Level Edmonton Center
04:20PM 53.4000 -97.3000 333° Northwest 470 541 32,000  Level Edmonton Center
04:21PM 53.5167 -97.4167 329° Northwest 470 541 32,000  Level Edmonton Center
04:22PM 53.6333 -97.5000 337° Northwest 470 541 32,000  Level Edmonton Center
04:23PM 53.7833 -97.6667 327° Northwest 470 541 32,000  Level Winnipeg Center
04:24PM 53.9000 -97.7667 333° Northwest 470 541 32,000  Level Winnipeg Center
04:25PM 54.0167 -97.9000 326° Northwest 470 541 32,000  Level Winnipeg Center
04:26PM 54.1167 -98.0167 326° Northwest 470 541 32,000  Level Winnipeg Center
04:27PM 54.2000 -98.1333 321° Northwest 470 541 32,000  Level Edmonton Center
04:28PM 54.3000 -98.2500 326° Northwest 460 529 32,000  Level Edmonton Center
04:29PM 54.4000 -98.3833 322° Northwest 460 529 32,000  Level Edmonton Center
04:30PM 54.5000 -98.5167 322° Northwest 460 529 32,000  Level Edmonton Center
04:31PM 54.6000 -98.6500 322° Northwest 470 541 32,000  Level Edmonton Center
04:32PM 54.7167 -98.8000 323° Northwest 460 529 32,000  Level Edmonton Center
04:33PM 54.8167 -98.9333 322° Northwest 460 529 32,000  Level Edmonton Center
04:34PM 54.9333 -99.0667 327° Northwest 460 529 32,000  Level Edmonton Center
04:35PM 55.0167 -99.2000 317° Northwest 460 529 32,000  Level Edmonton Center
04:36PM 55.1333 -99.3333 327° Northwest 460 529 32,000  Level Edmonton Center
04:37PM 55.2333 -99.4833 319° Northwest 460 529 32,000  Level Edmonton Center
04:38PM 55.3333 -99.6333 320° Northwest 460 529 32,000  Level Edmonton Center
04:39PM 55.4333 -99.7667 323° Northwest 450 518 32,000  Level Edmonton Center
04:40PM 55.5333 -99.9000 323° Northwest 450 518 32,000  Level Edmonton Center
04:41PM 55.6333 -100.0333 323° Northwest 460 529 32,000  Level Edmonton Center
04:42PM 55.7667 -100.2333 320° Northwest 470 541 32,000  Level Winnipeg Center
04:43PM 55.8333 -100.3167 325° Northwest 460 529 32,000  Level Edmonton Center
04:44PM 55.9333 -100.4833 317° Northwest 460 529 32,000  Level Edmonton Center
04:45PM 56.0500 -100.6167 327° Northwest 470 541 32,000  Level Edmonton Center
04:46PM 56.1500 -100.7667 320° Northwest 470 541 32,000  Level Edmonton Center
04:47PM 56.2500 -100.9000 323° Northwest 470 541 32,000  Level Edmonton Center
04:48PM 56.3500 -101.0667 317° Northwest 470 541 32,000  Level Edmonton Center
04:49PM 56.4500 -101.2167 320° Northwest 470 541 32,000  Level Edmonton Center
04:50PM 56.5667 -101.3667 325° Northwest 460 529 32,000  Level Edmonton Center
04:51PM 56.6500 -101.5000 319° Northwest 460 529 32,000  Level Edmonton Center
04:52PM 56.7500 -101.6833 315° West 460 529 32,000  Level Edmonton Center
04:53PM 56.8667 -101.8333 325° Northwest 460 529 32,000  Level Edmonton Center
04:54PM 56.9500 -101.9667 319° Northwest 460 529 32,000  Level Edmonton Center
04:55PM 57.0667 -102.1500 320° Northwest 470 541 32,000  Level Edmonton Center
04:56PM 57.1500 -102.2667 323° Northwest 470 541 32,000  Level Edmonton Center
04:57PM 57.2500 -102.4500 315° West 470 541 32,000  Level Edmonton Center
04:58PM 57.3500 -102.6000 321° Northwest 470 541 32,000  Level Edmonton Center
04:59PM 57.4667 -102.7833 320° Northwest 470 541 32,000  Level Edmonton Center
05:00PM 57.5667 -102.9333 321° Northwest 470 541 32,000  Level Edmonton Center
05:01PM 57.6667 -103.0833 321° Northwest 470 541 32,000  Level Edmonton Center
05:02PM 57.7500 -103.2667 310° West 470 541 32,000  Level Edmonton Center
05:03PM 57.8667 -103.4333 323° Northwest 470 541 32,000  Level Edmonton Center
05:04PM 57.9667 -103.5833 322° Northwest 470 541 32,000  Level Edmonton Center
05:05PM 58.0667 -103.7333 322° Northwest 470 541 32,000  Level Edmonton Center
05:06PM 58.1500 -103.9333 308° West 470 541 32,000  Level Edmonton Center
05:07PM 58.2500 -104.0833 322° Northwest 470 541 32,000  Level Edmonton Center
05:08PM 58.3667 -104.2500 323° Northwest 470 541 32,000  Level Edmonton Center
05:09PM 58.4667 -104.4333 316° Northwest 470 541 32,000  Level Edmonton Center
05:10PM 58.5500 -104.6000 314° West 470 541 32,000  Level Edmonton Center
05:11PM 58.6500 -104.7667 319° Northwest 480 552 32,000  Level Edmonton Center
05:12PM 58.7667 -104.9667 318° Northwest 480 552 32,000  Level Edmonton Center
05:13PM 58.8500 -105.1167 317° Northwest 480 552 32,000  Level Edmonton Center
05:14PM 58.9500 -105.3167 314° West 480 552 32,000  Level Edmonton Center
05:15PM 59.0500 -105.4833 319° Northwest 480 552 32,000  Level Edmonton Center
05:16PM 59.1667 -105.6500 324° Northwest 470 541 32,000  Level Edmonton Center
05:17PM 59.2833 -105.8500 319° Northwest 470 541 32,000  Level Edmonton Center
05:18PM 59.3833 -106.0167 320° Northwest 480 552 32,000  Level Edmonton Center
05:19PM 59.4833 -106.2000 317° Northwest 480 552 32,000  Level Edmonton Center
05:20PM 59.5833 -106.4000 315° West 480 552 32,000  Level Edmonton Center
05:21PM 59.6833 -106.5667 320° Northwest 480 552 32,000  Level Edmonton Center
05:22PM 59.7833 -106.7500 317° Northwest 480 552 32,000  Level Edmonton Center
05:23PM 59.8833 -106.9167 320° Northwest 480 552 32,000  Level Edmonton Center
05:24PM 59.9833 -107.1000 318° Northwest 480 552 32,000  Level Edmonton Center
05:25PM 60.0667 -107.2667 315° West 480 552 32,000  Level Edmonton Center
05:26PM 60.1667 -107.4500 318° Northwest 480 552 32,000  Level Edmonton Center
05:27PM 60.2667 -107.6333 318° Northwest 480 552 32,000  Level Edmonton Center
05:28PM 60.3833 -107.8500 317° Northwest 480 552 32,000  Level Edmonton Center
05:29PM 60.4833 -108.0167 321° Northwest 480 552 32,000  Level Edmonton Center
05:30PM 60.5833 -108.2000 318° Northwest 480 552 32,000  Level Edmonton Center
05:31PM 60.6833 -108.3833 318° Northwest 480 552 32,000  Level Edmonton Center
05:32PM 60.7833 -108.5667 318° Northwest 480 552 32,000  Level Edmonton Center
05:33PM 60.8667 -108.7667 311° West 480 552 32,000  Level Edmonton Center
05:34PM 60.9667 -108.9833 314° West 480 552 32,000  Level Edmonton Center
05:35PM 61.0833 -109.1667 323° Northwest 480 552 32,000  Level Edmonton Center
05:36PM 61.1833 -109.3667 316° Northwest 480 552 32,000  Level Edmonton Center
05:37PM 61.2667 -109.5167 319° Northwest 490 564 32,000  Level Edmonton Center
05:38PM 61.3833 -109.7500 316° Northwest 480 552 32,000  Level Edmonton Center
05:39PM 61.4833 -109.9333 319° Northwest 480 552 32,000  Level Edmonton Center
05:40PM 61.5833 -110.1333 316° Northwest 480 552 32,000  Level Edmonton Center
05:41PM 61.6667 -110.3667 307° West 490 564 32,000  Level Edmonton Center
05:42PM 61.7667 -110.5500 319° Northwest 490 564 32,000  Level Edmonton Center
05:43PM 61.8500 -110.7500 311° West 490 564 32,000  Level Edmonton Center
05:44PM 61.9500 -110.9500 317° Northwest 490 564 32,000  Level Edmonton Center
05:45PM 62.0500 -111.1500 317° Northwest 490 564 32,000  Level Edmonton Center
05:46PM 62.1500 -111.4000 311° West 490 564 32,000  Level Edmonton Center
05:47PM 62.2500 -111.6000 317° Northwest 480 552 32,000  Level Edmonton Center
05:48PM 62.3333 -111.8000 312° West 480 552 32,000  Level Edmonton Center
05:49PM 62.4333 -112.0000 317° Northwest 480 552 32,000  Level Edmonton Center
05:50PM 62.5333 -112.2500 311° West 480 552 32,000  Level Edmonton Center
05:51PM 62.6333 -112.4500 317° Northwest 480 552 32,000  Level Edmonton Center
05:52PM 62.7167 -112.6667 310° West 480 552 32,000  Level Edmonton Center
05:53PM 62.8167 -112.8833 315° West 480 552 32,000  Level Edmonton Center
05:54PM 62.9000 -113.0833 312° West 480 552 32,000  Level Edmonton Center
05:55PM 62.9833 -113.3000 310° West 480 552 32,000  Level Edmonton Center
05:56PM 63.0833 -113.5167 316° Northwest 480 552 32,000  Level Edmonton Center
05:57PM 63.1667 -113.7333 310° West 480 552 32,000  Level Edmonton Center
05:58PM 63.2500 -113.9833 307° West 480 552 32,000  Level Edmonton Center
05:59PM 63.3500 -114.2000 316° Northwest 480 552 32,000  Level Edmonton Center
06:00PM 63.4333 -114.4167 311° West 480 552 32,000  Level Edmonton Center
06:01PM 63.5333 -114.6500 314° West 480 552 32,000  Level Edmonton Center
06:02PM 63.6333 -114.8667 316° Northwest 480 552 32,000  Level Edmonton Center
06:03PM 63.7167 -115.1000 309° West 470 541 32,000  Level Edmonton Center
06:04PM 63.8000 -115.3167 311° West 470 541 32,000  Level Edmonton Center
06:05PM 63.8833 -115.5833 305° West 480 552 32,000  Level Edmonton Center
06:06PM 63.9667 -115.8167 309° West 480 552 32,000  Level Edmonton Center
06:07PM 64.0500 -116.0500 309° West 480 552 32,000  Level Edmonton Center
06:08PM 64.1500 -116.2667 317° Northwest 480 552 32,000  Level Edmonton Center
06:09PM 64.2167 -116.5500 299° West 480 552 32,000  Level Edmonton Center
06:10PM 64.3167 -116.7833 315° West 480 552 32,000  Level Edmonton Center
06:11PM 64.4000 -117.0167 310° West 480 552 32,000  Level Edmonton Center
06:12PM 64.4833 -117.2500 310° West 480 552 32,000  Level Edmonton Center
06:13PM 64.5667 -117.4833 310° West 480 552 32,000  Level Edmonton Center
06:14PM 64.6667 -117.7333 313° West 480 552 32,000  Level Edmonton Center
06:15PM 64.7500 -117.9667 310° West 480 552 32,000  Level Edmonton Center
06:16PM 64.8167 -118.2500 299° West 480 552 32,000  Level Edmonton Center
06:17PM 64.9000 -118.5000 308° West 480 552 32,000  Level Edmonton Center
06:18PM 64.9833 -118.7500 308° West 490 564 32,000  Level Edmonton Center
06:19PM 65.0667 -118.9833 310° West 490 564 32,000  Level Edmonton Center
06:20PM 65.1667 -119.2833 309° West 490 564 32,000  Level Edmonton Center
06:21PM 65.2333 -119.5333 303° West 490 564 32,000  Level Edmonton Center
06:22PM 65.3000 -119.7833 303° West 490 564 32,000  Level Edmonton Center
06:24PM 65.4185 -120.1530 308° West  Level FlightAware Approximate
06:31PM 65.9650 -121.9431 307° West  Level FlightAware Approximate
06:32PM 66.0413 -122.2050 306° West  Level FlightAware Approximate
06:33PM 66.1174 -122.4692 304° West  Level FlightAware Approximate
06:34PM 66.1901 -122.7388 304° West  Level FlightAware Approximate
06:35PM 66.2624 -123.0100 304° West  Level FlightAware Approximate
06:36PM 66.3343 -123.2827 303° West  Level FlightAware Approximate
06:37PM 66.4056 -123.5569 303° West  Level FlightAware Approximate
06:38PM 66.4764 -123.8327 303° West  Level FlightAware Approximate
06:39PM 66.5468 -124.1101 303° West  Level FlightAware Approximate
06:40PM 66.6167 -124.3891 302° West  Level FlightAware Approximate
06:41PM 66.6861 -124.6696 302° West  Level FlightAware Approximate
06:42PM 66.7550 -124.9517 302° West  Level FlightAware Approximate
06:43PM 66.8188 -125.2420 299° West  Level FlightAware Approximate
06:44PM 66.8811 -125.5352 299° West  Level FlightAware Approximate
06:45PM 66.9430 -125.8299 298° West  Level FlightAware Approximate
06:46PM 67.0042 -126.1261 298° West  Level FlightAware Approximate
06:47PM 67.0649 -126.4237 298° West  Level FlightAware Approximate
06:48PM 67.1251 -126.7229 297° West  Level FlightAware Approximate
06:49PM 67.1847 -127.0235 297° West  Level FlightAware Approximate
06:50PM 67.2446 -127.3245 297° West  Level FlightAware Approximate
06:51PM 67.3039 -127.6270 297° West  Level FlightAware Approximate
06:52PM 67.3626 -127.9309 297° West  Level FlightAware Approximate
06:53PM 67.4208 -128.2364 296° West  Level FlightAware Approximate
06:54PM 67.4784 -128.5434 296° West  Level FlightAware Approximate
06:55PM 67.5354 -128.8519 296° West  Level FlightAware Approximate
06:56PM 67.5918 -129.1618 296° West  Level FlightAware Approximate
06:57PM 67.6476 -129.4732 295° West  Level FlightAware Approximate
06:58PM 67.7028 -129.7861 295° West  Level FlightAware Approximate
06:59PM 67.7575 -130.1004 295° West  Level FlightAware Approximate
07:00PM 67.8115 -130.4162 294° West  Level FlightAware Approximate
07:01PM 67.8649 -130.7335 294° West  Level FlightAware Approximate
07:02PM 67.9176 -131.0522 294° West  Level FlightAware Approximate
07:03PM 67.9698 -131.3723 294° West  Level FlightAware Approximate
07:04PM 68.0213 -131.6939 293° West  Level FlightAware Approximate
07:05PM 68.0723 -132.0169 293° West  Level FlightAware Approximate
07:06PM 68.1225 -132.3414 293° West  Level FlightAware Approximate
07:07PM 68.1722 -132.6672 292° West  Level FlightAware Approximate
07:08PM 68.2212 -132.9944 292° West  Level FlightAware Approximate
07:09PM 68.2695 -133.3231 292° West  Level FlightAware Approximate
07:10PM 68.3169 -133.6534 291° West  Level FlightAware Approximate
07:11PM 68.3633 -133.9856 291° West  Level FlightAware Approximate
07:12PM 68.4089 -134.3191 291° West  Level FlightAware Approximate
07:13PM 68.4539 -134.6539 290° West  Level FlightAware Approximate
07:14PM 68.4982 -134.9901 290° West  Level FlightAware Approximate
07:15PM 68.5418 -135.3275 290° West  Level FlightAware Approximate
07:16PM 68.5847 -135.6663 289° West  Level FlightAware Approximate
07:17PM 68.6270 -136.0064 289° West  Level FlightAware Approximate
07:18PM 68.6686 -136.3477 289° West  Level FlightAware Approximate
07:19PM 68.7095 -136.6903 288° West  Level FlightAware Approximate
07:20PM 68.7497 -137.0341 288° West  Level FlightAware Approximate
07:21PM 68.7892 -137.3792 288° West  Level FlightAware Approximate
07:22PM 68.8280 -137.7255 287° West  Level FlightAware Approximate
07:23PM 68.8660 -138.0730 287° West  Level FlightAware Approximate
07:24PM 68.9034 -138.4217 287° West  Level FlightAware Approximate
07:25PM 68.9401 -138.7715 286° West  Level FlightAware Approximate
07:25PM 68.9833 -139.1333 289° West 480 552 32,000  Level Anchorage Center
07:26PM 68.9760 -139.1225 286° West  Level FlightAware Approximate
07:26PM 69.0167 -139.4667 286° West 450 518 32,000  Level Anchorage Center
07:27PM 69.0112 -139.4747 286° West  Level FlightAware Approximate
07:27PM 69.0500 -139.8000 286° West 450 518 32,000  Level Anchorage Center
07:28PM 69.0457 -139.8279 285° West  Level FlightAware Approximate
07:28PM 69.0833 -140.1333 286° West 450 518 32,000  Level Anchorage Center
07:29PM 69.0795 -140.1823 285° West  Level FlightAware Approximate
07:29PM 69.1000 -140.4500 279° West 440 506 32,000  Level Anchorage Center
07:30PM 69.1125 -140.5377 285° West  Level FlightAware Approximate
07:30PM 69.1333 -140.7833 286° West 440 506 32,000  Level Anchorage Center
07:31PM 69.1533 -140.8872 289° West  Level FlightAware Approximate
07:31PM 69.1833 -141.1000 294° West 450 518 32,000  Level Anchorage Center
07:32PM 69.2500 -141.3833 304° West 460 529 32,000  Level Anchorage Center
07:33PM 69.3333 -141.6667 310° West 450 518 32,000  Level Anchorage Center
07:34PM 69.4000 -141.9833 301° West 460 529 32,000  Level Anchorage Center
07:35PM 69.4667 -142.2667 304° West 450 518 32,000  Level Anchorage Center
07:36PM 69.5333 -142.5667 303° West 460 529 32,000  Level Anchorage Center
07:37PM 69.6167 -142.8667 309° West 460 529 32,000 60 Level Anchorage Center
07:38PM 69.6833 -143.1833 301° West 460 529 32,200 420 Climbing Anchorage Center
07:39PM 69.7333 -143.5167 294° West 460 529 32,900 720 Climbing Anchorage Center
07:40PM 69.8000 -143.9000 297° West 450 518 33,700 540 Climbing Anchorage Center
07:41PM 69.8500 -144.2167 295° West 450 518 34,000 120 Climbing Anchorage Center
07:42PM 69.9167 -144.5500 300° West 460 529 34,000  Level Anchorage Center
07:43PM 69.9667 -144.8833 294° West 470 541 34,000  Level Anchorage Center
07:44PM 70.0167 -145.2167 294° West 460 529 34,000  Level Anchorage Center
07:45PM 70.0667 -145.5667 293° West 460 529 34,000  Level Anchorage Center
07:46PM 70.1333 -145.9000 301° West 460 529 34,000  Level Anchorage Center
07:47PM 70.1833 -146.2333 294° West 450 518 34,000  Level Anchorage Center
07:48PM 70.2333 -146.5667 294° West 460 529 34,000  Level Anchorage Center
07:49PM 70.2833 -146.9167 293° West 460 529 34,000  Level Anchorage Center
07:50PM 70.3333 -147.2500 294° West 450 518 34,000  Level Anchorage Center
07:51PM 70.3833 -147.6000 293° West 460 529 34,000  Level Anchorage Center
07:52PM 70.4333 -147.9333 294° West 460 529 34,000  Level Anchorage Center
07:54PM 70.4833 -148.2667 294° West 450 518 34,000  Level Anchorage Center
07:55PM 70.5167 -148.6167 286° West 450 518 34,000  Level Anchorage Center
07:56PM 70.5667 -148.9667 293° West 450 518 34,000  Level Anchorage Center
07:57PM 70.6167 -149.3000 294° West 450 518 34,000  Level Anchorage Center
07:58PM 70.6667 -149.6500 293° West 440 506 34,000  Level Anchorage Center
07:59PM 70.7000 -150.0000 286° West 440 506 34,000  Level Anchorage Center
08:00PM 70.7500 -150.3500 294° West 440 506 34,000  Level Anchorage Center
08:01PM 70.7833 -150.7000 286° West 450 518 34,000  Level Anchorage Center
08:02PM 70.8333 -151.0500 294° West 450 518 34,000  Level Anchorage Center
08:03PM 70.8833 -151.4000 294° West 440 506 34,000  Level Anchorage Center
08:04PM 70.9167 -151.7500 286° West 430 495 34,000  Level Anchorage Center
08:05PM 70.9500 -152.0833 287° West 430 495 34,000  Level Anchorage Center
08:06PM 70.9833 -152.4333 286° West 430 495 34,000  Level Anchorage Center
08:07PM 71.0333 -152.7667 295° West 420 483 34,000  Level Anchorage Center
08:08PM 71.0667 -153.1167 287° West 430 495 34,000  Level Anchorage Center
08:09PM 71.1000 -153.4667 287° West 420 483 34,000  Level Anchorage Center
08:10PM 71.1333 -153.8000 287° West 420 483 34,000  Level Anchorage Center
08:11PM 71.1667 -154.1500 287° West 420 483 34,000  Level Anchorage Center
08:12PM 71.2000 -154.4833 287° West 410 472 34,000  Level Anchorage Center
08:13PM 71.2333 -154.8333 287° West 420 483 34,000  Level Anchorage Center
08:14PM 71.2667 -155.1667 287° West 420 483 34,000  Level Anchorage Center
08:15PM 71.3000 -155.5167 287° West 410 472 34,000  Level Anchorage Center
08:16PM 71.3333 -155.8500 287° West 400 460 34,000  Level Anchorage Center
08:17PM 71.3667 -156.2667 284° West 410 472 34,000  Level Anchorage Center
08:18PM 71.3833 -156.5833 280° West 400 460 34,000  Level Anchorage Center
08:19PM 71.4167 -156.9333 287° West 400 460 34,000  Level Anchorage Center
08:20PM 71.4500 -157.2667 288° West 400 460 34,000  Level Anchorage Center
08:21PM 71.4667 -157.5833 280° West 410 472 34,000  Level Anchorage Center
08:22PM 71.5000 -157.9333 287° West 410 472 34,000  Level Anchorage Center
08:23PM 71.5167 -158.2833 279° West 410 472 34,000  Level Anchorage Center
08:24PM 71.5500 -158.6167 288° West 400 460 34,000  Level Anchorage Center
08:25PM 71.5667 -158.9667 279° West 410 472 34,000  Level Anchorage Center
08:26PM 71.6000 -159.3167 287° West 400 460 34,000  Level Anchorage Center
08:27PM 71.6167 -159.6667 279° West 400 460 34,000  Level Anchorage Center
08:28PM 71.6500 -160.0167 287° West 400 460 34,000  Level Anchorage Center
08:29PM 71.6667 -160.3500 279° West 410 472 34,000  Level Anchorage Center
08:30PM 71.6833 -160.7167 278° West 410 472 34,000  Level Anchorage Center
08:31PM 71.7000 -161.0667 279° West 410 472 34,000  Level Anchorage Center
08:32PM 71.7333 -161.4167 287° West 410 472 34,000  Level Anchorage Center
08:33PM 71.7500 -161.7833 278° West 420 483 34,000  Level Anchorage Center
08:34PM 71.7667 -162.1333 279° West 410 472 34,000  Level Anchorage Center
08:35PM 71.7833 -162.5000 278° West 410 472 34,000  Level Anchorage Center
08:36PM 71.8000 -162.8500 279° West 410 472 34,000  Level Anchorage Center
08:37PM 71.8167 -163.2167 278° West 410 472 34,000  Level Anchorage Center
08:38PM 71.8333 -163.5667 279° West 410 472 34,000  Level Anchorage Center
08:39PM 71.8500 -163.9333 278° West 410 472 34,000  Level Anchorage Center
08:41PM 71.8560 -164.6561 272° West  Level FlightAware Approximate
08:48PM 71.8530 -167.5486 271° West  Level FlightAware Approximate
08:49PM 71.8490 -167.9615 268° West  Level FlightAware Approximate
08:50PM 71.8441 -168.3742 268° West  Level FlightAware Approximate
08:51PM 71.8384 -168.7867 268° West  Level FlightAware Approximate
08:52PM 71.8318 -169.1989 267° West  Level FlightAware Approximate
08:53PM 71.8243 -169.6108 267° West  Level FlightAware Approximate
08:54PM 71.8160 -170.0223 266° West  Level FlightAware Approximate
08:55PM 71.8068 -170.4335 266° West  Level FlightAware Approximate
08:56PM 71.7967 -170.8443 266° West  Level FlightAware Approximate
08:57PM 71.7857 -171.2545 265° West  Level FlightAware Approximate
08:58PM 71.7738 -171.6643 265° West  Level FlightAware Approximate
08:59PM 71.7611 -172.0736 265° West  Level FlightAware Approximate
09:00PM 71.7475 -172.4823 264° West  Level FlightAware Approximate
09:01PM 71.7331 -172.8904 264° West  Level FlightAware Approximate
09:02PM 71.7178 -173.2978 263° West  Level FlightAware Approximate
09:03PM 71.7016 -173.7046 263° West  Level FlightAware Approximate
09:04PM 71.6845 -174.1106 263° West  Level FlightAware Approximate
09:05PM 71.6666 -174.5159 262° West  Level FlightAware Approximate
09:06PM 71.6479 -174.9204 262° West  Level FlightAware Approximate
09:07PM 71.6283 -175.3241 261° West  Level FlightAware Approximate
09:08PM 71.6078 -175.7270 261° West  Level FlightAware Approximate
09:09PM 71.5865 -176.1290 261° West  Level FlightAware Approximate
09:10PM 71.5644 -176.5300 260° West  Level FlightAware Approximate
09:11PM 71.5414 -176.9302 260° West  Level FlightAware Approximate
09:12PM 71.5176 -177.3293 260° West  Level FlightAware Approximate
09:13PM 71.4930 -177.7274 259° West  Level FlightAware Approximate
09:14PM 71.4675 -178.1245 259° West  Level FlightAware Approximate
09:15PM 71.4412 -178.5205 258° West  Level FlightAware Approximate
09:16PM 71.4140 -178.9155 258° West  Level FlightAware Approximate
09:17PM 71.3861 -179.3092 258° West  Level FlightAware Approximate
09:18PM 71.3573 -179.7019 257° West  Level FlightAware Approximate
09:19PM 71.3277 179.9066 257° West  Level FlightAware Approximate
09:20PM 71.2973 179.5164 257° West  Level FlightAware Approximate
09:21PM 71.2662 179.1274 256° West  Level FlightAware Approximate
09:22PM 71.2342 178.7396 256° West  Level FlightAware Approximate
09:23PM 71.2014 178.3532 255° West  Level FlightAware Approximate
09:24PM 71.1678 177.9680 255° West  Level FlightAware Approximate
09:25PM 71.1334 177.5842 255° West  Level FlightAware Approximate
09:26PM 71.0983 177.2018 254° West  Level FlightAware Approximate
09:27PM 71.0623 176.8207 254° West  Level FlightAware Approximate
09:28PM 71.0256 176.4411 254° West  Level FlightAware Approximate
09:29PM 70.9882 176.0628 253° West  Level FlightAware Approximate
09:30PM 70.9499 175.6861 253° West  Level FlightAware Approximate
09:31PM 70.9109 175.3107 253° West  Level FlightAware Approximate
09:32PM 70.8711 174.9369 252° West  Level FlightAware Approximate
09:33PM 70.8306 174.5646 252° West  Level FlightAware Approximate
09:34PM 70.7893 174.1938 251° West  Level FlightAware Approximate
09:35PM 70.7473 173.8246 251° West  Level FlightAware Approximate
09:36PM 70.7046 173.4569 251° West  Level FlightAware Approximate
09:37PM 70.6611 173.0907 250° West  Level FlightAware Approximate
09:38PM 70.6169 172.7262 250° West  Level FlightAware Approximate
09:39PM 70.5720 172.3633 250° West  Level FlightAware Approximate
09:40PM 70.5263 172.0020 249° West  Level FlightAware Approximate
09:41PM 70.4800 171.6424 249° West  Level FlightAware Approximate
09:42PM 70.4329 171.2844 249° West  Level FlightAware Approximate
09:43PM 70.3851 170.9280 248° West  Level FlightAware Approximate
09:44PM 70.3366 170.5734 248° West  Level FlightAware Approximate
09:45PM 70.2875 170.2204 248° West  Level FlightAware Approximate
09:46PM 70.2376 169.8691 247° West  Level FlightAware Approximate
09:47PM 70.1871 169.5196 247° West  Level FlightAware Approximate
09:48PM 70.1359 169.1717 247° West  Level FlightAware Approximate
09:49PM 70.0840 168.8256 246° West  Level FlightAware Approximate
09:50PM 70.0315 168.4812 246° West  Level FlightAware Approximate
09:51PM 69.9783 168.1386 246° West  Level FlightAware Approximate
09:52PM 69.9244 167.7977 245° Southwest  Level FlightAware Approximate
09:53PM 69.8699 167.4586 245° Southwest  Level FlightAware Approximate
09:54PM 69.8148 167.1212 245° Southwest  Level FlightAware Approximate
09:55PM 69.7590 166.7856 244° Southwest  Level FlightAware Approximate
09:56PM 69.7025 166.4518 244° Southwest  Level FlightAware Approximate
09:57PM 69.6455 166.1198 244° Southwest  Level FlightAware Approximate
09:58PM 69.5878 165.7895 244° Southwest  Level FlightAware Approximate
09:59PM 69.5295 165.4611 243° Southwest  Level FlightAware Approximate
10:00PM 69.4706 165.1344 243° Southwest  Level FlightAware Approximate
10:01PM 69.4110 164.8096 243° Southwest  Level FlightAware Approximate
10:02PM 69.3509 164.4865 242° Southwest  Level FlightAware Approximate
10:03PM 69.2902 164.1653 242° Southwest  Level FlightAware Approximate
10:04PM 69.2289 163.8458 242° Southwest  Level FlightAware Approximate
10:05PM 69.1670 163.5282 241° Southwest  Level FlightAware Approximate
10:06PM 69.1045 163.2123 241° Southwest  Level FlightAware Approximate
10:07PM 69.0414 162.8983 241° Southwest  Level FlightAware Approximate
10:08PM 68.9778 162.5861 241° Southwest  Level FlightAware Approximate
10:09PM 68.9136 162.2757 240° Southwest  Level FlightAware Approximate
10:10PM 68.8488 161.9671 240° Southwest  Level FlightAware Approximate
10:11PM 68.7835 161.6603 240° Southwest  Level FlightAware Approximate
10:12PM 68.7177 161.3553 239° Southwest  Level FlightAware Approximate
10:13PM 68.6512 161.0521 239° Southwest  Level FlightAware Approximate
10:14PM 68.5843 160.7507 239° Southwest  Level FlightAware Approximate
10:15PM 68.5168 160.4511 239° Southwest  Level FlightAware Approximate
10:16PM 68.4488 160.1533 238° Southwest  Level FlightAware Approximate
10:17PM 68.3802 159.8573 238° Southwest  Level FlightAware Approximate
10:18PM 68.3111 159.5631 238° Southwest  Level FlightAware Approximate
10:19PM 68.2416 159.2706 237° Southwest  Level FlightAware Approximate
10:20PM 68.1715 158.9800 237° Southwest  Level FlightAware Approximate
10:21PM 68.1009 158.6911 237° Southwest  Level FlightAware Approximate
10:22PM 68.0298 158.4040 237° Southwest  Level FlightAware Approximate
10:23PM 67.9582 158.1187 236° Southwest  Level FlightAware Approximate
10:24PM 67.8861 157.8351 236° Southwest  Level FlightAware Approximate
10:25PM 67.8135 157.5533 236° Southwest  Level FlightAware Approximate
10:26PM 67.7404 157.2732 236° Southwest  Level FlightAware Approximate
10:27PM 67.6669 156.9949 235° Southwest  Level FlightAware Approximate
10:28PM 67.5929 156.7183 235° Southwest  Level FlightAware Approximate
10:29PM 67.5184 156.4434 235° Southwest  Level FlightAware Approximate
10:30PM 67.4435 156.1703 235° Southwest  Level FlightAware Approximate
10:31PM 67.3681 155.8989 234° Southwest  Level FlightAware Approximate
10:32PM 67.2922 155.6292 234° Southwest  Level FlightAware Approximate
10:33PM 67.2159 155.3612 234° Southwest  Level FlightAware Approximate
10:34PM 67.1392 155.0949 234° Southwest  Level FlightAware Approximate
10:35PM 67.0620 154.8303 233° Southwest  Level FlightAware Approximate
10:36PM 66.9844 154.5674 233° Southwest  Level FlightAware Approximate
10:37PM 66.9063 154.3062 233° Southwest  Level FlightAware Approximate
10:38PM 66.8279 154.0466 233° Southwest  Level FlightAware Approximate
10:39PM 66.7490 153.7887 232° Southwest  Level FlightAware Approximate
10:40PM 66.6696 153.5325 232° Southwest  Level FlightAware Approximate
10:41PM 66.5899 153.2778 232° Southwest  Level FlightAware Approximate
10:42PM 66.5098 153.0249 232° Southwest  Level FlightAware Approximate
10:43PM 66.4292 152.7735 231° Southwest  Level FlightAware Approximate
10:44PM 66.3483 152.5238 231° Southwest  Level FlightAware Approximate
10:45PM 66.2669 152.2757 231° Southwest  Level FlightAware Approximate
10:46PM 66.1852 152.0291 231° Southwest  Level FlightAware Approximate
10:47PM 66.1031 151.7842 230° Southwest  Level FlightAware Approximate
10:48PM 66.0205 151.5409 230° Southwest  Level FlightAware Approximate
10:49PM 65.9376 151.2991 230° Southwest  Level FlightAware Approximate
10:50PM 65.8544 151.0589 230° Southwest  Level FlightAware Approximate
10:51PM 65.7707 150.8203 230° Southwest  Level FlightAware Approximate
10:52PM 65.6867 150.5832 229° Southwest  Level FlightAware Approximate
10:53PM 65.6023 150.3476 229° Southwest  Level FlightAware Approximate
10:54PM 65.5176 150.1136 229° Southwest  Level FlightAware Approximate
10:55PM 65.4325 149.8810 229° Southwest  Level FlightAware Approximate
10:56PM 65.3470 149.6500 228° Southwest  Level FlightAware Approximate
10:57PM 65.2612 149.4205 228° Southwest  Level FlightAware Approximate
10:58PM 65.1750 149.1925 228° Southwest  Level FlightAware Approximate
10:59PM 65.0885 148.9660 228° Southwest  Level FlightAware Approximate
11:00PM 65.0017 148.7409 228° Southwest  Level FlightAware Approximate
11:01PM 64.9145 148.5173 227° Southwest  Level FlightAware Approximate
11:02PM 64.8270 148.2952 227° Southwest  Level FlightAware Approximate
11:03PM 64.7392 148.0744 227° Southwest  Level FlightAware Approximate
11:04PM 64.6510 147.8552 227° Southwest  Level FlightAware Approximate
11:05PM 64.5625 147.6373 227° Southwest  Level FlightAware Approximate
11:06PM 64.4737 147.4209 226° Southwest  Level FlightAware Approximate
11:07PM 64.3846 147.2058 226° Southwest  Level FlightAware Approximate
11:08PM 64.2952 146.9922 226° Southwest  Level FlightAware Approximate
11:09PM 64.2054 146.7799 226° Southwest  Level FlightAware Approximate
11:10PM 64.1154 146.5690 226° Southwest  Level FlightAware Approximate
11:11PM 64.0250 146.3595 225° Southwest  Level FlightAware Approximate
11:12PM 63.9344 146.1513 225° Southwest  Level FlightAware Approximate
11:13PM 63.8434 145.9445 225° Southwest  Level FlightAware Approximate
11:14PM 63.7522 145.7390 225° Southwest  Level FlightAware Approximate
11:15PM 63.6606 145.5348 225° Southwest  Level FlightAware Approximate
11:16PM 63.5688 145.3320 225° Southwest  Level FlightAware Approximate
11:17PM 63.4767 145.1304 224° Southwest  Level FlightAware Approximate
11:18PM 63.3843 144.9302 224° Southwest  Level FlightAware Approximate
11:19PM 63.2917 144.7312 224° Southwest  Level FlightAware Approximate
11:20PM 63.1987 144.5335 224° Southwest  Level FlightAware Approximate
11:21PM 63.1055 144.3371 224° Southwest  Level FlightAware Approximate
11:22PM 63.0121 144.1420 223° Southwest  Level FlightAware Approximate
11:23PM 62.9183 143.9480 223° Southwest  Level FlightAware Approximate
11:24PM 62.8243 143.7554 223° Southwest  Level FlightAware Approximate
11:25PM 62.7300 143.5639 223° Southwest  Level FlightAware Approximate
11:26PM 62.6355 143.3737 223° Southwest  Level FlightAware Approximate
11:27PM 62.5407 143.1847 223° Southwest  Level FlightAware Approximate
11:28PM 62.4456 142.9969 222° Southwest  Level FlightAware Approximate
11:29PM 62.3504 142.8103 222° Southwest  Level FlightAware Approximate
11:30PM 62.2548 142.6248 222° Southwest  Level FlightAware Approximate
11:31PM 62.1590 142.4405 222° Southwest  Level FlightAware Approximate
11:32PM 62.0630 142.2574 222° Southwest  Level FlightAware Approximate
11:33PM 61.9667 142.0755 222° Southwest  Level FlightAware Approximate
11:34PM 61.8702 141.8947 221° Southwest  Level FlightAware Approximate
11:35PM 61.7735 141.7150 221° Southwest  Level FlightAware Approximate
11:36PM 61.6765 141.5365 221° Southwest  Level FlightAware Approximate
11:37PM 61.5793 141.3591 221° Southwest  Level FlightAware Approximate
11:38PM 61.4818 141.1828 221° Southwest  Level FlightAware Approximate
11:39PM 61.3842 141.0076 221° Southwest  Level FlightAware Approximate
11:40PM 61.2863 140.8335 221° Southwest  Level FlightAware Approximate
11:41PM 61.1882 140.6604 220° Southwest  Level FlightAware Approximate
11:42PM 61.0898 140.4885 220° Southwest  Level FlightAware Approximate
11:43PM 60.9913 140.3176 220° Southwest  Level FlightAware Approximate
11:44PM 60.8925 140.1478 220° Southwest  Level FlightAware Approximate
11:45PM 60.7936 139.9790 220° Southwest  Level FlightAware Approximate
11:46PM 60.6944 139.8112 220° Southwest  Level FlightAware Approximate
11:47PM 60.5950 139.6445 220° Southwest  Level FlightAware Approximate
11:48PM 60.4954 139.4789 219° Southwest  Level FlightAware Approximate
11:49PM 60.3956 139.3142 219° Southwest  Level FlightAware Approximate
11:50PM 60.2956 139.1505 219° Southwest  Level FlightAware Approximate
11:51PM 60.1954 138.9879 219° Southwest  Level FlightAware Approximate
11:52PM 60.0950 138.8262 219° Southwest  Level FlightAware Approximate
11:53PM 59.9944 138.6655 219° Southwest  Level FlightAware Approximate
11:54PM 59.8936 138.5058 219° Southwest  Level FlightAware Approximate
11:55PM 59.7926 138.3471 218° Southwest  Level FlightAware Approximate
11:56PM 59.6914 138.1893 218° Southwest  Level FlightAware Approximate
11:57PM 59.5900 138.0325 218° Southwest  Level FlightAware Approximate
11:58PM 59.4885 137.8766 218° Southwest  Level FlightAware Approximate
11:59PM 59.3868 137.7216 218° Southwest  Level FlightAware Approximate
12:00AM 59.2848 137.5676 218° Southwest  Level FlightAware Approximate
12:01AM 59.1827 137.4145 218° Southwest  Level FlightAware Approximate
12:02AM 59.0805 137.2623 217° Southwest  Level FlightAware Approximate
12:03AM 58.9780 137.1111 217° Southwest  Level FlightAware Approximate
12:04AM 58.8754 136.9607 217° Southwest  Level FlightAware Approximate
12:05AM 58.7726 136.8112 217° Southwest  Level FlightAware Approximate
12:06AM 58.6696 136.6626 217° Southwest  Level FlightAware Approximate
12:07AM 58.5665 136.5148 217° Southwest  Level FlightAware Approximate
12:08AM 58.4632 136.3679 217° Southwest  Level FlightAware Approximate
12:09AM 58.3597 136.2219 217° Southwest  Level FlightAware Approximate
12:10AM 58.2560 136.0768 216° Southwest  Level FlightAware Approximate
12:11AM 58.1522 135.9325 216° Southwest  Level FlightAware Approximate
12:12AM 58.0482 135.7890 216° Southwest  Level FlightAware Approximate
12:13AM 57.9441 135.6464 216° Southwest  Level FlightAware Approximate
12:14AM 57.8398 135.5046 216° Southwest  Level FlightAware Approximate
12:15AM 57.7354 135.3636 216° Southwest  Level FlightAware Approximate
12:16AM 57.6308 135.2234 216° Southwest  Level FlightAware Approximate
12:17AM 57.5260 135.0840 216° Southwest  Level FlightAware Approximate
12:18AM 57.4211 134.9454 215° Southwest  Level FlightAware Approximate
12:19AM 57.3161 134.8077 215° Southwest  Level FlightAware Approximate
12:20AM 57.2108 134.6707 215° Southwest  Level FlightAware Approximate
12:21AM 57.1055 134.5345 215° Southwest  Level FlightAware Approximate
12:22AM 57.0000 134.3990 215° Southwest  Level FlightAware Approximate
12:23AM 56.8943 134.2644 215° Southwest  Level FlightAware Approximate
12:24AM 56.7885 134.1304 215° Southwest  Level FlightAware Approximate
12:25AM 56.6826 133.9973 215° Southwest  Level FlightAware Approximate
12:26AM 56.5765 133.8649 215° Southwest  Level FlightAware Approximate
12:27AM 56.4703 133.7332 214° Southwest  Level FlightAware Approximate
12:28AM 56.3639 133.6023 214° Southwest  Level FlightAware Approximate
12:29AM 56.2574 133.4721 214° Southwest  Level FlightAware Approximate
12:30AM 56.1508 133.3426 214° Southwest  Level FlightAware Approximate
12:31AM 56.0440 133.2138 214° Southwest  Level FlightAware Approximate
12:32AM 55.9371 133.0858 214° Southwest  Level FlightAware Approximate
12:33AM 55.8301 132.9584 214° Southwest  Level FlightAware Approximate
12:34AM 55.7229 132.8318 214° Southwest  Level FlightAware Approximate
12:35AM 55.6157 132.7058 214° Southwest  Level FlightAware Approximate
12:36AM 55.5082 132.5805 213° Southwest  Level FlightAware Approximate
12:37AM 55.4007 132.4559 213° Southwest  Level FlightAware Approximate
12:38AM 55.2930 132.3320 213° Southwest  Level FlightAware Approximate
12:39AM 55.1852 132.2088 213° Southwest  Level FlightAware Approximate
12:40AM 55.0773 132.0862 213° Southwest  Level FlightAware Approximate
12:41AM 54.9692 131.9643 213° Southwest  Level FlightAware Approximate
12:42AM 54.8611 131.8430 213° Southwest  Level FlightAware Approximate
12:43AM 54.7528 131.7224 213° Southwest  Level FlightAware Approximate
12:44AM 54.6444 131.6024 213° Southwest  Level FlightAware Approximate
12:45AM 54.5359 131.4831 213° Southwest  Level FlightAware Approximate
12:46AM 54.4272 131.3644 212° Southwest  Level FlightAware Approximate
12:47AM 54.3185 131.2463 212° Southwest  Level FlightAware Approximate
12:48AM 54.2096 131.1289 212° Southwest  Level FlightAware Approximate
12:49AM 54.1007 131.0121 212° Southwest  Level FlightAware Approximate
12:50AM 53.9916 130.8959 212° Southwest  Level FlightAware Approximate
12:51AM 53.8823 130.7802 212° Southwest  Level FlightAware Approximate
12:52AM 53.7730 130.6653 212° Southwest  Level FlightAware Approximate
12:53AM 53.6636 130.5508 212° Southwest  Level FlightAware Approximate
12:54AM 53.5541 130.4370 212° Southwest  Level FlightAware Approximate
12:54AM 56.1240 128.0530 212° Southwest 452 520 36,000  Level FlightAware
12:55AM 53.4444 130.3238 212° Southwest  Level FlightAware Approximate
12:55AM 55.9450 127.8860 208° Southwest 454 522 36,000  Level FlightAware
12:57AM 55.7550 127.7190 206° Southwest 455 524 36,000  Level FlightAware
01:00AM 55.4167 127.6856 183° South  Level Estimated
01:01AM 55.2882 127.6731 183° South  Level Estimated
01:02AM 55.1597 127.6606 183° South  Level Estimated
01:03AM 55.0312 127.6483 183° South  Level Estimated
01:03AM 54.9950 127.2940 183° South 478 550 36,000  Level FlightAware
01:04AM 54.8970 127.2780 185° South 479 551 36,000  Level FlightAware
01:05AM 54.8060 127.2640 185° South 480 552 36,000  Level FlightAware
01:05AM 54.7180 127.2500 185° South 482 555 36,000  Level FlightAware
01:06AM 54.6240 127.2350 185° South 484 557 36,000  Level FlightAware
01:07AM 54.5180 127.2180 185° South 486 559 36,000  Level FlightAware
01:07AM 54.4290 127.2040 185° South 487 560 36,000  Level FlightAware
01:08AM 54.3200 127.1870 185° South 484 557 36,000  Level FlightAware
01:09AM 54.2240 127.1710 186° South 486 559 36,000  Level FlightAware
01:11AM 53.9400 127.1270 185° South 490 564 36,000  Level FlightAware
01:12AM 53.8130 127.1080 185° South 489 563 36,000  Level FlightAware
01:13AM 53.7160 127.0950 185° South 492 566 36,000  Level FlightAware
01:13AM 53.6200 127.1150 173° South 495 570 36,000  Level FlightAware
01:14AM 53.5670 127.1340 168° South 490 564 36,000  Level FlightAware
01:15AM 53.4560 127.1740 168° South 490 564 36,000  Level FlightAware
01:16AM 53.2670 127.2390 168° South 488 562 36,000  Level FlightAware
01:17AM 53.1830 127.2680 168° South 488 562 36,000  Level FlightAware
01:17AM 53.0820 127.3030 168° South 490 564 36,000  Level FlightAware
01:18AM 52.9810 127.3370 169° South 491 565 36,000  Level FlightAware
01:19AM 52.8950 127.3670 168° South 493 567 36,000  Level FlightAware
01:20AM 52.8020 127.3990 168° South 493 567 36,000  Level FlightAware
01:20AM 52.6900 127.4370 168° South 491 565 36,000  Level FlightAware
01:21AM 52.5460 127.4860 168° South 482 555 36,000  Level FlightAware
01:22AM 52.4170 127.5290 169° South 478 550 36,000  Level FlightAware
01:23AM 52.3200 127.5610 169° South 476 548 36,000  Level FlightAware
01:24AM 52.2320 127.5910 168° South 475 547 36,000  Level FlightAware
01:25AM 52.1510 127.6180 168° South 474 545 36,000  Level FlightAware
01:25AM 52.0390 127.6550 169° South 477 549 36,000  Level FlightAware
01:26AM 51.9420 127.6680 175° South 475 547 36,000  Level FlightAware
01:27AM 51.8430 127.6680 180° South 476 548 36,000  Level FlightAware
01:28AM 51.7420 127.6680 180° South 477 549 36,000  Level FlightAware
01:28AM 51.6690 127.6680 180° South 477 549 36,000  Level FlightAware
01:29AM 51.5010 127.6680 180° South 477 549 36,000  Level FlightAware
01:30AM 51.3940 127.6680 180° South 477 549 36,000  Level FlightAware
01:31AM 51.2390 127.6460 185° South 470 541 36,100  Climbing FlightAware
01:32AM 51.1550 127.6230 190° South 471 542 36,100  Level FlightAware
01:33AM 51.0580 127.5980 189° South 471 542 36,100  Level FlightAware
01:34AM 50.9660 127.5730 190° South 469 540 36,100  Level FlightAware
01:35AM 50.8480 127.5430 189° South 469 540 36,100  Level FlightAware
01:35AM 50.7820 127.5270 189° South 469 540 36,100  Level FlightAware
01:37AM 50.6270 127.4880 189° South 469 540 36,100  Level FlightAware
01:37AM 50.5400 127.4660 189° South 469 540 36,100  Level FlightAware
01:38AM 50.3680 127.4150 191° South 474 545 36,100  Level FlightAware
01:39AM 50.3020 127.3930 192° South 474 545 36,100  Level FlightAware
01:40AM 50.1930 127.3570 192° South 474 545 36,100  Level FlightAware
01:40AM 50.1710 127.3500 192° South 474 545 36,100  Level FlightAware
01:41AM 50.0690 127.3160 192° South 474 545 36,100  Level FlightAware
01:42AM 49.9810 127.2870 192° South 474 545 36,100  Level FlightAware
01:42AM 49.9140 127.2650 192° South 474 545 36,100  Level FlightAware
01:43AM 49.8260 127.2360 192° South 474 545 36,100  Level FlightAware
01:44AM 49.7610 127.2140 192° South 474 545 36,100  Level FlightAware
01:45AM 49.6730 127.1850 192° South 474 545 36,100  Level FlightAware
01:45AM 49.6280 127.1700 192° South 474 545 36,100  Level FlightAware
01:46AM 49.5360 127.1400 192° South 474 545 36,100  Level FlightAware
01:47AM 49.4270 127.1050 192° South 474 545 36,100 -240 Level FlightAware
01:50AM 49.1131 126.9182 201° Southwest  Level FlightAware Approximate
01:51AM 48.9931 126.8474 201° Southwest  Level FlightAware Approximate
01:52AM 48.8730 126.7770 201° Southwest  Level FlightAware Approximate
01:53AM 48.7529 126.7069 201° Southwest  Level FlightAware Approximate
01:54AM 48.6328 126.6371 201° Southwest  Level FlightAware Approximate
01:55AM 48.5126 126.5677 201° Southwest  Level FlightAware Approximate
01:56AM 48.3923 126.4986 201° Southwest  Level FlightAware Approximate
01:57AM 48.2721 126.4298 201° Southwest  Level FlightAware Approximate
01:58AM 48.1517 126.3614 201° Southwest  Level FlightAware Approximate
01:59AM 48.0314 126.2932 201° Southwest  Level FlightAware Approximate
02:00AM 47.9110 126.2254 201° Southwest  Level FlightAware Approximate
02:01AM 47.7905 126.1579 201° Southwest  Level FlightAware Approximate
02:02AM 47.6663 126.0937 197° South  Level FlightAware Approximate
02:03AM 47.5433 126.0377 197° South  Level FlightAware Approximate
02:04AM 47.4202 125.9819 197° South  Level FlightAware Approximate
02:05AM 47.2972 125.9265 197° South  Level FlightAware Approximate
02:06AM 47.1741 125.8712 197° South  Level FlightAware Approximate
02:07AM 47.0509 125.8163 197° South  Level FlightAware Approximate
02:08AM 46.9278 125.7616 197° South  Level FlightAware Approximate
02:09AM 46.8046 125.7072 197° South  Level FlightAware Approximate
02:10AM 46.6814 125.6529 197° South  Level FlightAware Approximate
02:11AM 46.5582 125.5990 197° South  Level FlightAware Approximate
02:12AM 46.4350 125.5453 197° South  Level FlightAware Approximate
02:13AM 46.3117 125.4918 197° South  Level FlightAware Approximate
02:14AM 46.1884 125.4386 197° South  Level FlightAware Approximate
02:15AM 46.0650 125.3856 197° South  Level FlightAware Approximate
02:16AM 45.9417 125.3328 197° South  Level FlightAware Approximate
02:17AM 45.8183 125.2803 197° South  Level FlightAware Approximate
02:18AM 45.6949 125.2281 196° South  Level FlightAware Approximate
02:19AM 45.5715 125.1760 196° South  Level FlightAware Approximate
02:20AM 45.4481 125.1242 196° South  Level FlightAware Approximate
02:21AM 45.3246 125.0726 196° South  Level FlightAware Approximate
02:22AM 45.2011 125.0212 196° South  Level FlightAware Approximate
02:23AM 45.0776 124.9700 196° South  Level FlightAware Approximate
02:24AM 44.9540 124.9191 196° South  Level FlightAware Approximate
02:25AM 44.8305 124.8684 196° South  Level FlightAware Approximate
02:26AM 44.7069 124.8179 196° South  Level FlightAware Approximate
02:27AM 44.5833 124.7676 196° South  Level FlightAware Approximate
02:28AM 44.4597 124.7176 196° South  Level FlightAware Approximate
02:29AM 44.3360 124.6677 196° South  Level FlightAware Approximate
02:30AM 44.2124 124.6181 196° South  Level FlightAware Approximate
02:31AM 44.0887 124.5686 196° South  Level FlightAware Approximate
02:32AM 43.9650 124.5194 196° South  Level FlightAware Approximate
02:33AM 43.8412 124.4704 196° South  Level FlightAware Approximate
02:34AM 43.7175 124.4216 196° South  Level FlightAware Approximate
02:35AM 43.5937 124.3729 196° South  Level FlightAware Approximate
02:36AM 43.4699 124.3245 196° South  Level FlightAware Approximate
02:37AM 43.3461 124.2763 196° South  Level FlightAware Approximate
02:38AM 43.2223 124.2283 196° South  Level FlightAware Approximate
02:39AM 43.0984 124.1805 196° South  Level FlightAware Approximate
02:40AM 42.9745 124.1328 196° South  Level FlightAware Approximate
02:41AM 42.8506 124.0854 196° South  Level FlightAware Approximate
02:42AM 42.7267 124.0381 196° South  Level FlightAware Approximate
02:43AM 42.6028 123.9910 196° South  Level FlightAware Approximate
02:44AM 42.4788 123.9442 196° South  Level FlightAware Approximate
02:45AM 42.3549 123.8975 196° South  Level FlightAware Approximate
02:46AM 42.2309 123.8509 196° South  Level FlightAware Approximate
02:47AM 42.1068 123.8046 195° South  Level FlightAware Approximate
02:48AM 41.9828 123.7585 195° South  Level FlightAware Approximate
02:49AM 41.8588 123.7125 195° South  Level FlightAware Approximate
02:50AM 41.7347 123.6667 195° South  Level FlightAware Approximate
02:51AM 41.6106 123.6211 195° South  Level FlightAware Approximate
02:52AM 41.4865 123.5756 195° South  Level FlightAware Approximate
02:53AM 41.3624 123.5304 195° South  Level FlightAware Approximate
02:54AM 41.2383 123.4853 195° South  Level FlightAware Approximate
02:55AM 41.1141 123.4404 195° South  Level FlightAware Approximate
02:56AM 40.9899 123.3956 195° South  Level FlightAware Approximate
02:57AM 40.8657 123.3510 195° South  Level FlightAware Approximate
02:58AM 40.7415 123.3066 195° South  Level FlightAware Approximate
02:59AM 40.6173 123.2624 195° South  Level FlightAware Approximate
03:00AM 40.4931 123.2183 195° South  Level FlightAware Approximate
03:01AM 40.3688 123.1743 195° South  Level FlightAware Approximate
03:02AM 40.2445 123.1306 195° South  Level FlightAware Approximate
03:03AM 40.1203 123.0870 195° South  Level FlightAware Approximate
03:04AM 39.9959 123.0435 195° South  Level FlightAware Approximate
03:05AM 39.8716 123.0002 195° South  Level FlightAware Approximate
03:06AM 39.7473 122.9571 195° South  Level FlightAware Approximate
03:07AM 39.6229 122.9141 195° South  Level FlightAware Approximate
03:08AM 39.4986 122.8713 195° South  Level FlightAware Approximate
03:09AM 39.3742 122.8287 195° South  Level FlightAware Approximate
03:10AM 39.2498 122.7861 195° South  Level FlightAware Approximate
03:11AM 39.1254 122.7438 195° South  Level FlightAware Approximate
03:12AM 39.0009 122.7016 195° South  Level FlightAware Approximate
03:13AM 38.8765 122.6595 195° South  Level FlightAware Approximate
03:14AM 38.7520 122.6176 195° South  Level FlightAware Approximate
03:15AM 38.6275 122.5758 195° South  Level FlightAware Approximate
03:16AM 38.5031 122.5342 195° South  Level FlightAware Approximate
03:17AM 38.3785 122.4927 195° South  Level FlightAware Approximate
03:18AM 38.2540 122.4513 195° South  Level FlightAware Approximate
03:19AM 38.1623 122.5625 135° Southeast  Level FlightAware Approximate
03:20AM 38.0717 122.6785 135° Southeast  Level FlightAware Approximate
03:21AM 37.9808 122.7943 135° Southeast  Level FlightAware Approximate
03:22AM 37.8899 122.9097 135° Southeast  Level FlightAware Approximate
03:23AM 37.7989 123.0249 135° Southeast  Level FlightAware Approximate
03:24AM 37.7077 123.1397 135° Southeast  Level FlightAware Approximate
03:25AM 37.6165 123.2543 135° Southeast  Level FlightAware Approximate
03:26AM 37.5309 123.3751 128° Southeast  Level FlightAware Approximate
03:27AM 37.4522 123.5034 128° Southeast  Level FlightAware Approximate
03:28AM 37.3733 123.6314 128° Southeast  Level FlightAware Approximate
03:29AM 37.2948 123.7596 124° Southeast  Level FlightAware Approximate
03:30AM 37.2221 123.8930 124° Southeast  Level FlightAware Approximate
03:31AM 37.1667 124.0307 90° East  Level FlightAware Approximate
03:32AM 37.1951 124.1878 80° East  Level FlightAware Approximate
03:33AM 37.2163 124.3471 80° East  Level FlightAware Approximate
03:34AM 37.2373 124.5066 81° East  Level FlightAware Approximate
03:35AM 37.2580 124.6661 81° East  Level FlightAware Approximate
03:36AM 37.2812 124.8251 79° East  Level FlightAware Approximate
03:37AM 37.3063 124.9838 79° East  Level FlightAware Approximate
03:38AM 37.3284 125.1431 81° East  Level FlightAware Approximate
03:39AM 37.3484 125.3030 81° East  Level FlightAware Approximate
03:40AM 37.3678 125.4630 84° East  Level FlightAware Approximate
03:41AM 37.3812 125.6241 84° East  Level FlightAware Approximate
03:42AM 37.4082 125.7822 77° East  Level FlightAware Approximate
03:43AM 37.4333 125.9406 90° East  Level FlightAware Approximate
03:44AM 37.4465 126.1015 82° East  Level FlightAware Approximate
03:45AM 37.4712 126.2605 78° East  Level FlightAware Approximate
03:46AM 37.4833 126.4211 90° East  Level FlightAware Approximate
03:47AM 37.4833 126.4333 90° East  Level FlightAware Approximate
03:48AM 37.4691 126.4505 90° East  Level Estimated
03:49AM 37.4691 126.4505 90° East  Level Estimated
03:50AM 37.4691 126.4505 90° East  Level Estimated
03:51AM 37.4691 126.4505 90° East  Level Estimated
03:52AM 37.4691 126.4505 90° East  Level Estimated
03:53AM 37.4691 126.4505 90° East  Level Estimated
03:54AM 37.4691 126.4505 90° East  Level Estimated
03:55AM 37.4691 126.4505 90° East  Level Estimated
03:55AM 37.1980 126.4060 90° East 222 255 5,900  Level FlightAware
03:56AM 37.4691 126.4505 90° East  Level Estimated
03:56AM 37.1980 126.4390 90° East 220 253 5,500  Level FlightAware
03:56AM 37.1970 126.4670 93° East 220 253 5,500  Level FlightAware
03:57AM 37.2490 126.5550 53° Northeast 3,800 -1,260 Descending FlightAware
04:00AM 37.4691 126.4505 339° North  Level Estimated
04:01AM 37.4691 126.4505 335° Northwest  Level Estimated
04:02AM 37.4691 126.4505 335° Northwest  Level Estimated
04:03AM 37.4691 126.4505 335° Northwest  Level Estimated
04:04AM 37.4691 126.4505 335° Northwest  Level Estimated
04:05AM 37.4691 126.4505 335° Northwest  Level Estimated
04:06AM 37.4691 126.4505 335° Northwest  Level Estimated
04:07AM 37.4691 126.4505 335° Northwest  Level Estimated
04:08AM 37.4691 126.4505 335° Northwest  Level Estimated
04:09AM 37.4691 126.4505 335° Northwest  Level Estimated
04:10AM 37.4691 126.4505 335° Northwest  Level Estimated
04:11AM 37.4691 126.4505 335° Northwest  Level Estimated
04:12AM 37.4691 126.4505 335° Northwest  Level Estimated